Athboy, South Dakota
Current Conditions -  °F | °C
As of 1:53 PM on Friday 31 Oct 2014 (Local Time) from KHEI Reporting Station
Clear Clear  
Wind Chill:   Ceiling: Unl
Heat Index:   Visibility: 10mi
Dew Point: -8°   Wind: 26mph
Humidity: 37%   Direction: 130°SE
Pressure: 30.14"   Gusts: 41mph
Location:  45.2919°N, 102.298°W
Report Text: KHEI 311953Z AUTO 13023G36KT 10SM CLR 06/M08 A3014 RMK AO2 PK WND 13036/1950 SLP230 T00611078
Loading
Personal Weather Stations






























Interactive Weather Map
Tropical Storm Tracking
New forecast layout! Learn more

10-Day Weather Forecast

Advertisements
Track Severe Weather on mobile